TAM3818 SBBR-SBFL
Flight info
| Callsign | TAM3818 |
|---|---|
| Flight time | N/A |
| Altitude | 36000 |
| Route | KUKOL UZ5 IMTBI DCT EDREX |
| Aircraft | A21N/M-SDE3FGHIRWY/LB1 |
Departure
| Time | N/A |
|---|---|
| Airport | Presidente Juscelino Kubitschek International Airport (SBBR) |
Arrival
| Time | 2026-04-25 20:08 |
|---|---|
| Airport | Hercílio Luz International Airport (SBFL) |
| Time | Latitude | Longitude | Altitude | Speed | Heading |
|---|---|---|---|---|---|
| 2026-04-25 19:57 | -27.14403 | -48.89428 | 11543 ft | 325 kts | 174° |
| 2026-04-25 19:57 | -27.16612 | -48.88933 | 11170 ft | 322 kts | 174° |
| 2026-04-25 19:58 | -27.18792 | -48.88444 | 10789 ft | 318 kts | 174° |
| 2026-04-25 19:58 | -27.20967 | -48.87956 | 10402 ft | 315 kts | 174° |
| 2026-04-25 19:58 | -27.23114 | -48.87474 | 10041 ft | 311 kts | 173° |
| 2026-04-25 19:58 | -27.25236 | -48.86997 | 9697 ft | 308 kts | 173° |
| 2026-04-25 19:59 | -27.27316 | -48.86529 | 9351 ft | 305 kts | 174° |
| 2026-04-25 19:59 | -27.29384 | -48.86062 | 8980 ft | 300 kts | 173° |
| 2026-04-25 19:59 | -27.31412 | -48.85604 | 8646 ft | 291 kts | 174° |
| 2026-04-25 19:59 | -27.33368 | -48.85161 | 8315 ft | 282 kts | 174° |
| 2026-04-25 20:00 | -27.35287 | -48.84729 | 7973 ft | 272 kts | 174° |
| 2026-04-25 20:00 | -27.36495 | -48.84457 | 7764 ft | 266 kts | 174° |
| 2026-04-25 20:00 | -27.38915 | -48.83915 | 7374 ft | 262 kts | 174° |
| 2026-04-25 20:00 | -27.40685 | -48.83517 | 7079 ft | 258 kts | 173° |
| 2026-04-25 20:01 | -27.44165 | -48.82733 | 6498 ft | 250 kts | 174° |
| 2026-04-25 20:01 | -27.45868 | -48.82348 | 6181 ft | 247 kts | 174° |
| 2026-04-25 20:01 | -27.47553 | -48.81970 | 5902 ft | 244 kts | 173° |
| 2026-04-25 20:02 | -27.49218 | -48.81595 | 5625 ft | 240 kts | 173° |
| 2026-04-25 20:02 | -27.50842 | -48.81227 | 5350 ft | 236 kts | 173° |
| 2026-04-25 20:02 | -27.52431 | -48.80775 | 5071 ft | 236 kts | 159° |
| 2026-04-25 20:02 | -27.53661 | -48.79563 | 4747 ft | 241 kts | 127° |
| 2026-04-25 20:03 | -27.54521 | -48.77927 | 4416 ft | 242 kts | 120° |
| 2026-04-25 20:03 | -27.55320 | -48.76260 | 4071 ft | 242 kts | 120° |
| 2026-04-25 20:03 | -27.56126 | -48.74603 | 3767 ft | 238 kts | 121° |
| 2026-04-25 20:03 | -27.56947 | -48.72996 | 3461 ft | 233 kts | 123° |
| 2026-04-25 20:04 | -27.57763 | -48.71456 | 3183 ft | 227 kts | 123° |
| 2026-04-25 20:04 | -27.58542 | -48.70006 | 2996 ft | 208 kts | 124° |
| 2026-04-25 20:04 | -27.59270 | -48.68659 | 2710 ft | 196 kts | 123° |
| 2026-04-25 20:04 | -27.59956 | -48.67390 | 2432 ft | 185 kts | 123° |
| 2026-04-25 20:05 | -27.60608 | -48.66180 | 2202 ft | 171 kts | 123° |
| 2026-04-25 20:05 | -27.61194 | -48.65091 | 1968 ft | 156 kts | 124° |
| 2026-04-25 20:05 | -27.61731 | -48.64092 | 1748 ft | 145 kts | 124° |
| 2026-04-25 20:05 | -27.62255 | -48.63124 | 1583 ft | 145 kts | 124° |
| 2026-04-25 20:06 | -27.62780 | -48.62152 | 1419 ft | 143 kts | 123° |
| 2026-04-25 20:06 | -27.63297 | -48.61192 | 1242 ft | 142 kts | 123° |
| 2026-04-25 20:06 | -27.63807 | -48.60245 | 1066 ft | 140 kts | 124° |
| 2026-04-25 20:06 | -27.64311 | -48.59309 | 886 ft | 138 kts | 123° |
| 2026-04-25 20:07 | -27.64800 | -48.58387 | 708 ft | 137 kts | 122° |
| 2026-04-25 20:07 | -27.65289 | -48.57464 | 523 ft | 135 kts | 124° |
| 2026-04-25 20:07 | -27.65779 | -48.56555 | 351 ft | 135 kts | 124° |
| 2026-04-25 20:07 | -27.66263 | -48.55666 | 189 ft | 134 kts | 124° |
| 2026-04-25 20:08 | -27.66751 | -48.54769 | 50 ft | 130 kts | 123° |
| 2026-04-25 20:08 | -27.67168 | -48.53998 | 36 ft | 95 kts | 121° |
| 2026-04-25 20:08 | -27.67424 | -48.53524 | 35 ft | 44 kts | 121° |
| 2026-04-25 20:08 | -27.67559 | -48.53273 | 34 ft | 34 kts | 121° |
| 2026-04-25 20:09 | -27.67649 | -48.53106 | 34 ft | 14 kts | 125° |
| 2026-04-25 20:09 | -27.67715 | -48.53088 | 34 ft | 11 kts | 204° |
| 2026-04-25 20:09 | -27.67781 | -48.53136 | 34 ft | 11 kts | 229° |
| 2026-04-25 20:09 | -27.67779 | -48.53219 | 34 ft | 11 kts | 298° |
| 2026-04-25 20:10 | -27.67736 | -48.53302 | 34 ft | 12 kts | 301° |
| 2026-04-25 20:10 | -27.67690 | -48.53388 | 35 ft | 13 kts | 301° |
| 2026-04-25 20:10 | -27.67639 | -48.53479 | 35 ft | 14 kts | 302° |
| 2026-04-25 20:10 | -27.67588 | -48.53575 | 35 ft | 14 kts | 301° |
| 2026-04-25 20:11 | -27.67534 | -48.53674 | 36 ft | 14 kts | 301° |
| 2026-04-25 20:11 | -27.67480 | -48.53775 | 36 ft | 15 kts | 301° |
| 2026-04-25 20:11 | -27.67426 | -48.53876 | 36 ft | 15 kts | 301° |
| 2026-04-25 20:11 | -27.67369 | -48.53982 | 36 ft | 15 kts | 301° |
| 2026-04-25 20:12 | -27.67312 | -48.54088 | 36 ft | 16 kts | 301° |
| 2026-04-25 20:12 | -27.67252 | -48.54199 | 36 ft | 16 kts | 301° |
| 2026-04-25 20:12 | -27.67204 | -48.54294 | 36 ft | 10 kts | 290° |
| 2026-04-25 20:12 | -27.67220 | -48.54341 | 36 ft | 10 kts | 220° |
| 2026-04-25 20:13 | -27.67285 | -48.54411 | 36 ft | 8 kts | 275° |
| 2026-04-25 20:13 | -27.67264 | -48.54461 | 36 ft | 5 kts | 299° |
| 2026-04-25 20:13 | -27.67242 | -48.54506 | 36 ft | 7 kts | 300° |
| 2026-04-25 20:13 | -27.67221 | -48.54543 | 36 ft | 3 kts | 300° |
| 2026-04-25 20:14 | -27.67228 | -48.54564 | 37 ft | 3 kts | 219° |
| 2026-04-25 20:14 | -27.67247 | -48.54577 | 36 ft | 2 kts | 212° |
| 2026-04-25 20:14 | -27.67249 | -48.54579 | 36 ft | 0 kts | 212° |